sensor_id;sensor_type;location;lat;lon;timestamp;P1;durP1;ratioP1;P2;durP2;ratioP2
32934;SDS011;19292;51.532;7.650;2023-10-19T00:00:38;2.95;;;2.28;;
32934;SDS011;19292;51.532;7.650;2023-10-19T00:03:06;3.08;;;2.72;;
32934;SDS011;19292;51.532;7.650;2023-10-19T00:05:32;1.75;;;1.60;;
32934;SDS011;19292;51.532;7.650;2023-10-19T00:08:00;3.03;;;1.92;;
32934;SDS011;19292;51.532;7.650;2023-10-19T00:10:30;2.60;;;2.40;;
32934;SDS011;19292;51.532;7.650;2023-10-19T00:13:02;1.85;;;1.75;;
32934;SDS011;19292;51.532;7.650;2023-10-19T00:15:37;2.35;;;1.92;;
32934;SDS011;19292;51.532;7.650;2023-10-19T00:18:12;2.47;;;2.28;;
32934;SDS011;19292;51.532;7.650;2023-10-19T00:20:47;1.98;;;1.70;;
32934;SDS011;19292;51.532;7.650;2023-10-19T00:23:16;2.60;;;1.77;;
32934;SDS011;19292;51.532;7.650;2023-10-19T00:25:53;3.80;;;2.53;;
32934;SDS011;19292;51.532;7.650;2023-10-19T00:28:22;1.63;;;1.60;;
32934;SDS011;19292;51.532;7.650;2023-10-19T00:30:47;1.83;;;1.73;;
32934;SDS011;19292;51.532;7.650;2023-10-19T00:33:17;2.30;;;2.20;;
32934;SDS011;19292;51.532;7.650;2023-10-19T00:35:48;2.20;;;2.10;;
32934;SDS011;19292;51.532;7.650;2023-10-19T00:38:21;2.17;;;2.00;;
32934;SDS011;19292;51.532;7.650;2023-10-19T00:41:04;1.92;;;1.83;;
32934;SDS011;19292;51.532;7.650;2023-10-19T00:43:38;2.28;;;2.05;;
32934;SDS011;19292;51.532;7.650;2023-10-19T00:46:14;1.77;;;1.67;;
32934;SDS011;19292;51.532;7.650;2023-10-19T00:48:47;2.60;;;2.03;;
32934;SDS011;19292;51.532;7.650;2023-10-19T00:51:14;1.77;;;1.67;;
32934;SDS011;19292;51.532;7.650;2023-10-19T00:53:58;1.60;;;1.50;;
32934;SDS011;19292;51.532;7.650;2023-10-19T00:56:27;2.00;;;1.90;;
32934;SDS011;19292;51.532;7.650;2023-10-19T00:58:56;1.90;;;1.80;;
32934;SDS011;19292;51.532;7.650;2023-10-19T01:01:27;1.98;;;1.88;;
32934;SDS011;19292;51.532;7.650;2023-10-19T01:03:54;1.85;;;1.75;;
32934;SDS011;19292;51.532;7.650;2023-10-19T01:06:24;2.08;;;1.83;;
32934;SDS011;19292;51.532;7.650;2023-10-19T01:08:52;1.90;;;1.80;;
32934;SDS011;19292;51.532;7.650;2023-10-19T01:11:18;1.88;;;1.77;;
32934;SDS011;19292;51.532;7.650;2023-10-19T01:13:46;1.10;;;1.10;;
32934;SDS011;19292;51.532;7.650;2023-10-19T01:16:16;1.23;;;1.20;;
32934;SDS011;19292;51.532;7.650;2023-10-19T01:18:51;1.38;;;1.38;;
32934;SDS011;19292;51.532;7.650;2023-10-19T01:21:21;1.30;;;1.30;;
32934;SDS011;19292;51.532;7.650;2023-10-19T01:23:50;1.55;;;1.55;;
32934;SDS011;19292;51.532;7.650;2023-10-19T01:26:15;2.40;;;1.77;;
32934;SDS011;19292;51.532;7.650;2023-10-19T01:28:47;1.58;;;1.48;;
32934;SDS011;19292;51.532;7.650;2023-10-19T01:31:17;1.55;;;1.55;;
32934;SDS011;19292;51.532;7.650;2023-10-19T01:33:58;1.98;;;1.88;;
32934;SDS011;19292;51.532;7.650;2023-10-19T01:38:52;1.85;;;1.77;;
32934;SDS011;19292;51.532;7.650;2023-10-19T01:41:24;2.45;;;2.35;;
32934;SDS011;19292;51.532;7.650;2023-10-19T01:43:52;2.95;;;2.75;;
32934;SDS011;19292;51.532;7.650;2023-10-19T01:46:22;2.80;;;2.60;;
32934;SDS011;19292;51.532;7.650;2023-10-19T01:48:56;1.67;;;1.67;;
32934;SDS011;19292;51.532;7.650;2023-10-19T01:51:25;2.03;;;1.92;;
32934;SDS011;19292;51.532;7.650;2023-10-19T01:53:54;2.42;;;2.33;;
32934;SDS011;19292;51.532;7.650;2023-10-19T01:56:26;4.45;;;4.25;;
32934;SDS011;19292;51.532;7.650;2023-10-19T01:58:54;5.70;;;5.40;;
32934;SDS011;19292;51.532;7.650;2023-10-19T02:01:25;4.90;;;4.70;;
32934;SDS011;19292;51.532;7.650;2023-10-19T02:03:53;3.03;;;2.92;;
32934;SDS011;19292;51.532;7.650;2023-10-19T02:06:20;2.72;;;2.63;;
32934;SDS011;19292;51.532;7.650;2023-10-19T02:08:48;2.40;;;2.30;;
32934;SDS011;19292;51.532;7.650;2023-10-19T02:11:21;2.60;;;2.50;;
32934;SDS011;19292;51.532;7.650;2023-10-19T02:13:51;2.42;;;2.33;;
32934;SDS011;19292;51.532;7.650;2023-10-19T02:16:19;2.63;;;2.42;;
32934;SDS011;19292;51.532;7.650;2023-10-19T02:18:47;2.17;;;2.08;;
32934;SDS011;19292;51.532;7.650;2023-10-19T02:21:16;2.45;;;2.33;;
32934;SDS011;19292;51.532;7.650;2023-10-19T02:23:47;3.47;;;3.17;;
32934;SDS011;19292;51.532;7.650;2023-10-19T02:26:21;2.90;;;2.70;;
32934;SDS011;19292;51.532;7.650;2023-10-19T02:28:52;2.13;;;2.10;;
32934;SDS011;19292;51.532;7.650;2023-10-19T02:31:22;4.28;;;2.72;;
32934;SDS011;19292;51.532;7.650;2023-10-19T02:33:53;2.67;;;2.47;;
32934;SDS011;19292;51.532;7.650;2023-10-19T02:36:28;9.55;;;2.47;;
32934;SDS011;19292;51.532;7.650;2023-10-19T02:38:55;2.38;;;2.28;;
32934;SDS011;19292;51.532;7.650;2023-10-19T02:41:35;3.33;;;3.13;;
32934;SDS011;19292;51.532;7.650;2023-10-19T02:44:00;3.90;;;3.70;;
32934;SDS011;19292;51.532;7.650;2023-10-19T02:46:29;4.93;;;4.63;;
32934;SDS011;19292;51.532;7.650;2023-10-19T02:51:25;3.55;;;3.35;;
32934;SDS011;19292;51.532;7.650;2023-10-19T02:53:51;5.20;;;4.90;;
32934;SDS011;19292;51.532;7.650;2023-10-19T02:56:18;5.93;;;5.63;;
32934;SDS011;19292;51.532;7.650;2023-10-19T02:58:44;8.63;;;8.07;;
32934;SDS011;19292;51.532;7.650;2023-10-19T03:01:16;8.50;;;8.10;;
32934;SDS011;19292;51.532;7.650;2023-10-19T03:03:49;8.95;;;8.55;;
32934;SDS011;19292;51.532;7.650;2023-10-19T03:06:22;8.70;;;8.27;;
32934;SDS011;19292;51.532;7.650;2023-10-19T03:08:50;8.30;;;7.80;;
32934;SDS011;19292;51.532;7.650;2023-10-19T03:11:26;8.13;;;7.75;;
32934;SDS011;19292;51.532;7.650;2023-10-19T03:13:54;8.35;;;7.43;;
32934;SDS011;19292;51.532;7.650;2023-10-19T03:16:22;7.20;;;6.88;;
32934;SDS011;19292;51.532;7.650;2023-10-19T03:18:48;6.22;;;5.90;;
32934;SDS011;19292;51.532;7.650;2023-10-19T03:21:15;5.18;;;4.78;;
32934;SDS011;19292;51.532;7.650;2023-10-19T03:23:45;4.50;;;4.25;;
32934;SDS011;19292;51.532;7.650;2023-10-19T03:26:10;2.95;;;2.75;;
32934;SDS011;19292;51.532;7.650;2023-10-19T03:28:54;3.13;;;2.95;;
32934;SDS011;19292;51.532;7.650;2023-10-19T03:31:23;3.97;;;2.72;;
32934;SDS011;19292;51.532;7.650;2023-10-19T03:33:51;3.70;;;3.40;;
32934;SDS011;19292;51.532;7.650;2023-10-19T03:36:26;3.08;;;2.95;;
32934;SDS011;19292;51.532;7.650;2023-10-19T03:38:53;2.72;;;2.63;;
32934;SDS011;19292;51.532;7.650;2023-10-19T03:41:20;3.08;;;2.88;;
32934;SDS011;19292;51.532;7.650;2023-10-19T03:43:53;3.58;;;3.38;;
32934;SDS011;19292;51.532;7.650;2023-10-19T03:46:21;3.42;;;3.22;;
32934;SDS011;19292;51.532;7.650;2023-10-19T03:48:54;3.25;;;3.05;;
32934;SDS011;19292;51.532;7.650;2023-10-19T03:51:24;4.40;;;3.22;;
32934;SDS011;19292;51.532;7.650;2023-10-19T03:53:51;3.67;;;3.47;;
32934;SDS011;19292;51.532;7.650;2023-10-19T03:56:23;3.78;;;3.58;;
32934;SDS011;19292;51.532;7.650;2023-10-19T03:58:51;7.65;;;3.63;;
32934;SDS011;19292;51.532;7.650;2023-10-19T04:01:23;4.03;;;3.83;;
32934;SDS011;19292;51.532;7.650;2023-10-19T04:03:48;3.05;;;2.95;;
32934;SDS011;19292;51.532;7.650;2023-10-19T04:06:19;3.42;;;3.25;;
32934;SDS011;19292;51.532;7.650;2023-10-19T04:08:45;3.20;;;3.10;;
32934;SDS011;19292;51.532;7.650;2023-10-19T04:11:16;3.70;;;3.50;;
32934;SDS011;19292;51.532;7.650;2023-10-19T04:13:48;2.65;;;2.55;;
32934;SDS011;19292;51.532;7.650;2023-10-19T04:16:20;2.42;;;2.33;;
32934;SDS011;19292;51.532;7.650;2023-10-19T04:18:48;3.45;;;3.25;;
32934;SDS011;19292;51.532;7.650;2023-10-19T04:21:19;2.67;;;2.50;;
32934;SDS011;19292;51.532;7.650;2023-10-19T04:23:44;2.15;;;2.05;;
32934;SDS011;19292;51.532;7.650;2023-10-19T04:26:12;1.85;;;1.75;;
32934;SDS011;19292;51.532;7.650;2023-10-19T04:28:41;1.88;;;1.77;;
32934;SDS011;19292;51.532;7.650;2023-10-19T04:31:10;2.80;;;2.70;;
32934;SDS011;19292;51.532;7.650;2023-10-19T04:33:41;2.33;;;2.22;;
32934;SDS011;19292;51.532;7.650;2023-10-19T04:36:08;3.00;;;2.85;;
32934;SDS011;19292;51.532;7.650;2023-10-19T04:38:36;3.50;;;3.25;;
32934;SDS011;19292;51.532;7.650;2023-10-19T04:41:08;3.70;;;3.53;;
32934;SDS011;19292;51.532;7.650;2023-10-19T04:43:34;3.50;;;3.30;;
32934;SDS011;19292;51.532;7.650;2023-10-19T04:46:07;3.80;;;3.60;;
32934;SDS011;19292;51.532;7.650;2023-10-19T04:48:38;3.70;;;3.50;;
32934;SDS011;19292;51.532;7.650;2023-10-19T04:51:05;2.50;;;2.38;;
32934;SDS011;19292;51.532;7.650;2023-10-19T04:53:31;2.88;;;2.67;;
32934;SDS011;19292;51.532;7.650;2023-10-19T04:55:59;2.85;;;2.65;;
32934;SDS011;19292;51.532;7.650;2023-10-19T04:58:26;2.97;;;2.80;;
32934;SDS011;19292;51.532;7.650;2023-10-19T05:00:54;2.95;;;2.85;;
32934;SDS011;19292;51.532;7.650;2023-10-19T05:03:20;2.47;;;2.38;;
32934;SDS011;19292;51.532;7.650;2023-10-19T05:05:46;4.05;;;2.67;;
32934;SDS011;19292;51.532;7.650;2023-10-19T05:08:12;1.95;;;1.85;;
32934;SDS011;19292;51.532;7.650;2023-10-19T05:10:37;2.67;;;2.58;;
32934;SDS011;19292;51.532;7.650;2023-10-19T05:13:03;2.65;;;2.55;;
32934;SDS011;19292;51.532;7.650;2023-10-19T05:15:33;3.85;;;2.45;;
32934;SDS011;19292;51.532;7.650;2023-10-19T05:17:59;1.98;;;1.88;;
32934;SDS011;19292;51.532;7.650;2023-10-19T05:20:27;0.93;;;0.93;;
32934;SDS011;19292;51.532;7.650;2023-10-19T05:22:52;1.55;;;1.45;;
32934;SDS011;19292;51.532;7.650;2023-10-19T05:25:17;5.15;;;1.88;;
32934;SDS011;19292;51.532;7.650;2023-10-19T05:27:43;1.70;;;1.60;;
32934;SDS011;19292;51.532;7.650;2023-10-19T05:30:10;1.67;;;1.58;;
32934;SDS011;19292;51.532;7.650;2023-10-19T05:32:36;1.23;;;1.23;;
32934;SDS011;19292;51.532;7.650;2023-10-19T05:35:02;4.25;;;1.42;;
32934;SDS011;19292;51.532;7.650;2023-10-19T05:37:30;1.42;;;1.33;;
32934;SDS011;19292;51.532;7.650;2023-10-19T05:39:56;0.93;;;0.90;;
32934;SDS011;19292;51.532;7.650;2023-10-19T05:42:24;1.70;;;1.60;;
32934;SDS011;19292;51.532;7.650;2023-10-19T05:44:54;3.83;;;3.63;;
32934;SDS011;19292;51.532;7.650;2023-10-19T05:47:19;3.38;;;1.13;;
32934;SDS011;19292;51.532;7.650;2023-10-19T05:49:47;2.40;;;1.20;;
32934;SDS011;19292;51.532;7.650;2023-10-19T05:52:12;2.38;;;1.42;;
32934;SDS011;19292;51.532;7.650;2023-10-19T05:54:38;1.30;;;1.25;;
32934;SDS011;19292;51.532;7.650;2023-10-19T05:57:05;1.67;;;1.58;;
32934;SDS011;19292;51.532;7.650;2023-10-19T05:59:36;2.42;;;1.80;;
32934;SDS011;19292;51.532;7.650;2023-10-19T06:02:04;1.00;;;0.95;;
32934;SDS011;19292;51.532;7.650;2023-10-19T06:04:32;3.20;;;1.35;;
32934;SDS011;19292;51.532;7.650;2023-10-19T06:06:57;2.97;;;1.67;;
32934;SDS011;19292;51.532;7.650;2023-10-19T06:09:23;1.42;;;1.33;;
32934;SDS011;19292;51.532;7.650;2023-10-19T06:11:56;1.50;;;1.40;;
32934;SDS011;19292;51.532;7.650;2023-10-19T06:14:24;1.25;;;1.23;;
32934;SDS011;19292;51.532;7.650;2023-10-19T06:16:49;1.38;;;1.27;;
32934;SDS011;19292;51.532;7.650;2023-10-19T06:19:17;1.25;;;1.13;;
32934;SDS011;19292;51.532;7.650;2023-10-19T06:21:43;1.30;;;1.20;;
32934;SDS011;19292;51.532;7.650;2023-10-19T06:24:08;1.60;;;1.40;;
32934;SDS011;19292;51.532;7.650;2023-10-19T06:26:39;1.10;;;1.10;;
32934;SDS011;19292;51.532;7.650;2023-10-19T06:29:07;1.05;;;1.05;;
32934;SDS011;19292;51.532;7.650;2023-10-19T06:31:32;3.58;;;1.52;;
32934;SDS011;19292;51.532;7.650;2023-10-19T06:34:00;1.45;;;1.35;;
32934;SDS011;19292;51.532;7.650;2023-10-19T06:36:27;1.40;;;1.30;;
32934;SDS011;19292;51.532;7.650;2023-10-19T06:38:56;3.03;;;2.00;;
32934;SDS011;19292;51.532;7.650;2023-10-19T06:41:21;1.55;;;1.45;;
32934;SDS011;19292;51.532;7.650;2023-10-19T06:43:47;1.20;;;1.20;;
32934;SDS011;19292;51.532;7.650;2023-10-19T06:46:17;1.75;;;1.35;;
32934;SDS011;19292;51.532;7.650;2023-10-19T06:48:42;1.20;;;1.15;;
32934;SDS011;19292;51.532;7.650;2023-10-19T06:51:10;2.15;;;1.95;;
32934;SDS011;19292;51.532;7.650;2023-10-19T06:53:36;2.95;;;2.75;;
32934;SDS011;19292;51.532;7.650;2023-10-19T06:56:02;1.30;;;1.25;;
32934;SDS011;19292;51.532;7.650;2023-10-19T06:58:29;1.27;;;1.20;;
32934;SDS011;19292;51.532;7.650;2023-10-19T07:00:54;3.35;;;2.03;;
32934;SDS011;19292;51.532;7.650;2023-10-19T07:03:24;1.20;;;1.20;;
32934;SDS011;19292;51.532;7.650;2023-10-19T07:05:51;0.93;;;0.93;;
32934;SDS011;19292;51.532;7.650;2023-10-19T07:08:19;0.70;;;0.70;;
32934;SDS011;19292;51.532;7.650;2023-10-19T07:10:46;0.95;;;0.95;;
32934;SDS011;19292;51.532;7.650;2023-10-19T07:13:18;1.23;;;1.23;;
32934;SDS011;19292;51.532;7.650;2023-10-19T07:15:45;1.55;;;1.35;;
32934;SDS011;19292;51.532;7.650;2023-10-19T07:18:11;1.23;;;1.23;;
32934;SDS011;19292;51.532;7.650;2023-10-19T07:20:39;2.97;;;2.70;;
32934;SDS011;19292;51.532;7.650;2023-10-19T07:23:09;1.45;;;1.35;;
32934;SDS011;19292;51.532;7.650;2023-10-19T07:25:44;1.77;;;1.63;;
32934;SDS011;19292;51.532;7.650;2023-10-19T07:30:51;2.70;;;1.83;;
32934;SDS011;19292;51.532;7.650;2023-10-19T07:33:17;1.90;;;1.30;;
32934;SDS011;19292;51.532;7.650;2023-10-19T07:35:43;1.52;;;1.27;;
32934;SDS011;19292;51.532;7.650;2023-10-19T07:38:12;1.33;;;1.27;;
32934;SDS011;19292;51.532;7.650;2023-10-19T07:40:44;1.55;;;1.50;;
32934;SDS011;19292;51.532;7.650;2023-10-19T07:43:09;2.20;;;2.00;;
32934;SDS011;19292;51.532;7.650;2023-10-19T07:45:39;2.00;;;1.30;;
32934;SDS011;19292;51.532;7.650;2023-10-19T07:48:05;1.40;;;1.30;;
32934;SDS011;19292;51.532;7.650;2023-10-19T07:53:01;1.15;;;1.10;;
32934;SDS011;19292;51.532;7.650;2023-10-19T07:55:29;1.35;;;1.25;;
32934;SDS011;19292;51.532;7.650;2023-10-19T07:57:56;2.93;;;1.63;;
32934;SDS011;19292;51.532;7.650;2023-10-19T08:00:25;1.65;;;1.55;;
32934;SDS011;19292;51.532;7.650;2023-10-19T08:02:51;1.23;;;1.23;;
32934;SDS011;19292;51.532;7.650;2023-10-19T08:05:18;1.60;;;1.50;;
32934;SDS011;19292;51.532;7.650;2023-10-19T08:07:49;2.20;;;2.10;;
32934;SDS011;19292;51.532;7.650;2023-10-19T08:10:17;2.30;;;2.10;;
32934;SDS011;19292;51.532;7.650;2023-10-19T08:12:47;1.55;;;1.55;;
32934;SDS011;19292;51.532;7.650;2023-10-19T08:15:16;1.65;;;1.65;;
32934;SDS011;19292;51.532;7.650;2023-10-19T08:17:43;1.67;;;1.58;;
32934;SDS011;19292;51.532;7.650;2023-10-19T08:20:15;4.70;;;1.60;;
32934;SDS011;19292;51.532;7.650;2023-10-19T08:22:53;4.90;;;2.25;;
32934;SDS011;19292;51.532;7.650;2023-10-19T08:25:21;1.80;;;1.70;;
32934;SDS011;19292;51.532;7.650;2023-10-19T08:27:49;2.35;;;2.15;;
32934;SDS011;19292;51.532;7.650;2023-10-19T08:30:21;1.58;;;1.50;;
32934;SDS011;19292;51.532;7.650;2023-10-19T08:32:47;2.28;;;2.13;;
32934;SDS011;19292;51.532;7.650;2023-10-19T08:35:19;1.63;;;1.63;;
32934;SDS011;19292;51.532;7.650;2023-10-19T08:37:50;2.33;;;2.15;;
32934;SDS011;19292;51.532;7.650;2023-10-19T08:40:20;1.73;;;1.63;;
32934;SDS011;19292;51.532;7.650;2023-10-19T08:42:48;1.73;;;1.73;;
32934;SDS011;19292;51.532;7.650;2023-10-19T08:45:18;2.08;;;1.90;;
32934;SDS011;19292;51.532;7.650;2023-10-19T08:50:21;1.42;;;1.42;;
32934;SDS011;19292;51.532;7.650;2023-10-19T08:52:48;2.03;;;1.92;;
32934;SDS011;19292;51.532;7.650;2023-10-19T08:55:17;2.00;;;1.80;;
32934;SDS011;19292;51.532;7.650;2023-10-19T08:57:50;2.05;;;1.95;;
32934;SDS011;19292;51.532;7.650;2023-10-19T09:00:16;2.33;;;2.22;;
32934;SDS011;19292;51.532;7.650;2023-10-19T09:02:44;2.15;;;2.05;;
32934;SDS011;19292;51.532;7.650;2023-10-19T09:05:12;2.35;;;2.25;;
32934;SDS011;19292;51.532;7.650;2023-10-19T09:07:54;1.90;;;1.80;;
32934;SDS011;19292;51.532;7.650;2023-10-19T09:10:25;3.30;;;2.90;;
32934;SDS011;19292;51.532;7.650;2023-10-19T09:13:15;1.77;;;1.67;;
32934;SDS011;19292;51.532;7.650;2023-10-19T09:15:49;2.15;;;2.05;;
32934;SDS011;19292;51.532;7.650;2023-10-19T09:18:19;2.30;;;2.20;;
32934;SDS011;19292;51.532;7.650;2023-10-19T09:20:54;6.07;;;2.13;;
32934;SDS011;19292;51.532;7.650;2023-10-19T09:23:48;1.55;;;1.48;;
32934;SDS011;19292;51.532;7.650;2023-10-19T09:26:14;1.30;;;1.20;;
32934;SDS011;19292;51.532;7.650;2023-10-19T09:28:41;1.40;;;1.30;;
32934;SDS011;19292;51.532;7.650;2023-10-19T09:31:06;1.20;;;1.20;;
32934;SDS011;19292;51.532;7.650;2023-10-19T09:33:38;1.10;;;1.08;;
32934;SDS011;19292;51.532;7.650;2023-10-19T09:36:11;1.15;;;1.13;;
32934;SDS011;19292;51.532;7.650;2023-10-19T09:38:46;2.85;;;1.90;;
32934;SDS011;19292;51.532;7.650;2023-10-19T09:41:20;2.03;;;1.60;;
32934;SDS011;19292;51.532;7.650;2023-10-19T09:43:53;2.13;;;1.50;;
32934;SDS011;19292;51.532;7.650;2023-10-19T09:46:32;1.50;;;1.40;;
32934;SDS011;19292;51.532;7.650;2023-10-19T09:49:02;5.50;;;2.78;;
32934;SDS011;19292;51.532;7.650;2023-10-19T09:51:27;1.35;;;1.35;;
32934;SDS011;19292;51.532;7.650;2023-10-19T09:56:49;1.80;;;1.70;;
32934;SDS011;19292;51.532;7.650;2023-10-19T09:59:31;1.88;;;1.77;;
32934;SDS011;19292;51.532;7.650;2023-10-19T10:02:06;4.05;;;1.58;;
32934;SDS011;19292;51.532;7.650;2023-10-19T10:04:35;1.42;;;1.33;;
32934;SDS011;19292;51.532;7.650;2023-10-19T10:07:00;2.28;;;2.17;;
32934;SDS011;19292;51.532;7.650;2023-10-19T10:09:30;2.42;;;2.22;;
32934;SDS011;19292;51.532;7.650;2023-10-19T10:12:15;1.30;;;1.30;;
32934;SDS011;19292;51.532;7.650;2023-10-19T10:15:03;2.38;;;2.28;;
32934;SDS011;19292;51.532;7.650;2023-10-19T10:17:36;1.60;;;1.60;;
32934;SDS011;19292;51.532;7.650;2023-10-19T10:22:39;2.30;;;2.20;;
32934;SDS011;19292;51.532;7.650;2023-10-19T10:25:06;2.30;;;2.10;;
32934;SDS011;19292;51.532;7.650;2023-10-19T10:27:32;1.83;;;1.73;;
32934;SDS011;19292;51.532;7.650;2023-10-19T10:30:04;1.67;;;1.67;;
32934;SDS011;19292;51.532;7.650;2023-10-19T10:32:51;1.33;;;1.33;;
32934;SDS011;19292;51.532;7.650;2023-10-19T10:38:05;2.00;;;1.90;;
32934;SDS011;19292;51.532;7.650;2023-10-19T10:40:31;1.23;;;1.23;;
32934;SDS011;19292;51.532;7.650;2023-10-19T10:43:07;1.52;;;1.45;;
32934;SDS011;19292;51.532;7.650;2023-10-19T10:45:35;1.75;;;1.70;;
32934;SDS011;19292;51.532;7.650;2023-10-19T10:48:00;2.55;;;2.45;;
32934;SDS011;19292;51.532;7.650;2023-10-19T10:50:26;1.45;;;1.45;;
32934;SDS011;19292;51.532;7.650;2023-10-19T10:52:54;0.98;;;0.98;;
32934;SDS011;19292;51.532;7.650;2023-10-19T10:55:23;1.00;;;1.00;;
32934;SDS011;19292;51.532;7.650;2023-10-19T11:00:21;1.95;;;1.65;;
32934;SDS011;19292;51.532;7.650;2023-10-19T11:03:03;1.58;;;1.58;;
32934;SDS011;19292;51.532;7.650;2023-10-19T11:05:37;2.25;;;2.15;;
32934;SDS011;19292;51.532;7.650;2023-10-19T11:10:46;2.63;;;2.53;;
32934;SDS011;19292;51.532;7.650;2023-10-19T11:13:15;10.23;;;9.25;;
32934;SDS011;19292;51.532;7.650;2023-10-19T11:15:51;2.13;;;2.03;;
32934;SDS011;19292;51.532;7.650;2023-10-19T11:20:55;0.85;;;0.85;;
32934;SDS011;19292;51.532;7.650;2023-10-19T11:23:34;1.25;;;1.15;;
32934;SDS011;19292;51.532;7.650;2023-10-19T11:26:18;0.80;;;0.60;;
32934;SDS011;19292;51.532;7.650;2023-10-19T11:28:45;1.40;;;1.17;;
32934;SDS011;19292;51.532;7.650;2023-10-19T11:31:20;2.47;;;2.28;;
32934;SDS011;19292;51.532;7.650;2023-10-19T11:33:50;3.53;;;3.33;;
32934;SDS011;19292;51.532;7.650;2023-10-19T11:36:18;1.65;;;1.55;;
32934;SDS011;19292;51.532;7.650;2023-10-19T11:38:45;2.72;;;1.40;;
32934;SDS011;19292;51.532;7.650;2023-10-19T11:41:12;2.17;;;1.48;;
32934;SDS011;19292;51.532;7.650;2023-10-19T11:43:39;3.30;;;1.88;;
32934;SDS011;19292;51.532;7.650;2023-10-19T11:46:07;1.85;;;1.75;;
32934;SDS011;19292;51.532;7.650;2023-10-19T11:48:40;1.92;;;1.73;;
32934;SDS011;19292;51.532;7.650;2023-10-19T11:51:07;2.45;;;2.25;;
32934;SDS011;19292;51.532;7.650;2023-10-19T11:53:38;2.05;;;1.92;;
32934;SDS011;19292;51.532;7.650;2023-10-19T11:56:06;2.40;;;2.30;;
32934;SDS011;19292;51.532;7.650;2023-10-19T11:58:35;3.53;;;3.35;;
32934;SDS011;19292;51.532;7.650;2023-10-19T12:01:05;6.20;;;5.90;;
32934;SDS011;19292;51.532;7.650;2023-10-19T12:03:37;7.00;;;6.60;;
32934;SDS011;19292;51.532;7.650;2023-10-19T12:06:12;2.10;;;2.00;;
32934;SDS011;19292;51.532;7.650;2023-10-19T12:08:43;1.42;;;1.42;;
32934;SDS011;19292;51.532;7.650;2023-10-19T12:11:16;3.88;;;3.70;;
32934;SDS011;19292;51.532;7.650;2023-10-19T12:13:44;9.43;;;8.90;;
32934;SDS011;19292;51.532;7.650;2023-10-19T12:16:12;5.45;;;5.22;;
32934;SDS011;19292;51.532;7.650;2023-10-19T12:18:40;5.53;;;5.20;;
32934;SDS011;19292;51.532;7.650;2023-10-19T12:21:09;4.05;;;3.85;;
32934;SDS011;19292;51.532;7.650;2023-10-19T12:23:40;3.40;;;3.08;;
32934;SDS011;19292;51.532;7.650;2023-10-19T12:26:08;3.05;;;2.85;;
32934;SDS011;19292;51.532;7.650;2023-10-19T12:28:38;2.90;;;2.80;;
32934;SDS011;19292;51.532;7.650;2023-10-19T12:31:04;1.92;;;1.83;;
32934;SDS011;19292;51.532;7.650;2023-10-19T12:33:38;3.55;;;3.35;;
32934;SDS011;19292;51.532;7.650;2023-10-19T12:36:04;2.13;;;1.92;;
32934;SDS011;19292;51.532;7.650;2023-10-19T12:38:50;2.45;;;2.25;;
32934;SDS011;19292;51.532;7.650;2023-10-19T12:41:21;2.35;;;2.25;;
32934;SDS011;19292;51.532;7.650;2023-10-19T12:43:49;5.60;;;5.38;;
32934;SDS011;19292;51.532;7.650;2023-10-19T12:46:17;12.40;;;11.70;;
32934;SDS011;19292;51.532;7.650;2023-10-19T12:48:44;10.40;;;9.80;;
32934;SDS011;19292;51.532;7.650;2023-10-19T12:51:12;11.50;;;10.45;;
32934;SDS011;19292;51.532;7.650;2023-10-19T12:53:38;10.13;;;9.52;;
32934;SDS011;19292;51.532;7.650;2023-10-19T12:56:06;10.35;;;9.82;;
32934;SDS011;19292;51.532;7.650;2023-10-19T12:58:35;8.90;;;8.48;;
32934;SDS011;19292;51.532;7.650;2023-10-19T13:01:05;7.53;;;7.13;;
32934;SDS011;19292;51.532;7.650;2023-10-19T13:03:30;5.45;;;5.10;;
32934;SDS011;19292;51.532;7.650;2023-10-19T13:05:57;3.92;;;3.63;;
32934;SDS011;19292;51.532;7.650;2023-10-19T13:08:28;2.75;;;2.60;;
32934;SDS011;19292;51.532;7.650;2023-10-19T13:10:56;2.08;;;1.98;;
32934;SDS011;19292;51.532;7.650;2023-10-19T13:13:21;5.55;;;2.20;;
32934;SDS011;19292;51.532;7.650;2023-10-19T13:15:51;3.35;;;2.30;;
32934;SDS011;19292;51.532;7.650;2023-10-19T13:18:19;1.92;;;1.45;;
32934;SDS011;19292;51.532;7.650;2023-10-19T13:20:46;2.13;;;1.92;;
32934;SDS011;19292;51.532;7.650;2023-10-19T13:23:14;1.73;;;1.63;;
32934;SDS011;19292;51.532;7.650;2023-10-19T13:25:46;3.83;;;2.78;;
32934;SDS011;19292;51.532;7.650;2023-10-19T13:28:14;1.90;;;1.80;;
32934;SDS011;19292;51.532;7.650;2023-10-19T13:30:51;2.90;;;2.35;;
32934;SDS011;19292;51.532;7.650;2023-10-19T13:33:22;4.80;;;4.40;;
32934;SDS011;19292;51.532;7.650;2023-10-19T13:35:51;2.28;;;2.17;;
32934;SDS011;19292;51.532;7.650;2023-10-19T13:38:18;2.33;;;2.22;;
32934;SDS011;19292;51.532;7.650;2023-10-19T13:40:49;3.92;;;3.35;;
32934;SDS011;19292;51.532;7.650;2023-10-19T13:43:15;4.47;;;3.20;;
32934;SDS011;19292;51.532;7.650;2023-10-19T13:45:43;2.85;;;2.75;;
32934;SDS011;19292;51.532;7.650;2023-10-19T13:48:12;4.75;;;3.30;;
32934;SDS011;19292;51.532;7.650;2023-10-19T13:50:47;2.67;;;2.50;;
32934;SDS011;19292;51.532;7.650;2023-10-19T13:53:14;4.55;;;3.45;;
32934;SDS011;19292;51.532;7.650;2023-10-19T13:55:43;3.08;;;2.97;;
32934;SDS011;19292;51.532;7.650;2023-10-19T13:58:13;4.13;;;3.83;;
32934;SDS011;19292;51.532;7.650;2023-10-19T14:00:41;3.22;;;3.03;;
32934;SDS011;19292;51.532;7.650;2023-10-19T14:03:08;3.50;;;3.30;;
32934;SDS011;19292;51.532;7.650;2023-10-19T14:05:38;3.72;;;3.53;;
32934;SDS011;19292;51.532;7.650;2023-10-19T14:08:13;5.53;;;5.30;;
32934;SDS011;19292;51.532;7.650;2023-10-19T14:10:41;15.35;;;14.20;;
32934;SDS011;19292;51.532;7.650;2023-10-19T14:13:10;20.25;;;19.35;;
32934;SDS011;19292;51.532;7.650;2023-10-19T14:15:42;19.40;;;18.50;;
32934;SDS011;19292;51.532;7.650;2023-10-19T14:18:08;12.38;;;11.75;;
32934;SDS011;19292;51.532;7.650;2023-10-19T14:20:36;6.35;;;5.88;;
32934;SDS011;19292;51.532;7.650;2023-10-19T14:23:04;3.75;;;3.55;;
32934;SDS011;19292;51.532;7.650;2023-10-19T14:25:35;5.72;;;3.63;;
32934;SDS011;19292;51.532;7.650;2023-10-19T14:28:01;3.33;;;3.13;;
32934;SDS011;19292;51.532;7.650;2023-10-19T14:30:31;6.30;;;5.80;;
32934;SDS011;19292;51.532;7.650;2023-10-19T14:32:57;7.28;;;6.97;;
32934;SDS011;19292;51.532;7.650;2023-10-19T14:35:25;8.00;;;5.70;;
32934;SDS011;19292;51.532;7.650;2023-10-19T14:37:56;9.50;;;8.93;;
32934;SDS011;19292;51.532;7.650;2023-10-19T14:40:24;9.10;;;8.70;;
32934;SDS011;19292;51.532;7.650;2023-10-19T14:42:51;12.98;;;12.38;;
32934;SDS011;19292;51.532;7.650;2023-10-19T14:45:20;10.95;;;10.43;;
32934;SDS011;19292;51.532;7.650;2023-10-19T14:47:53;6.40;;;5.88;;
32934;SDS011;19292;51.532;7.650;2023-10-19T14:50:20;2.72;;;2.22;;
32934;SDS011;19292;51.532;7.650;2023-10-19T14:52:46;2.75;;;2.58;;
32934;SDS011;19292;51.532;7.650;2023-10-19T14:55:13;3.25;;;3.05;;
32934;SDS011;19292;51.532;7.650;2023-10-19T14:57:41;5.35;;;5.10;;
32934;SDS011;19292;51.532;7.650;2023-10-19T15:00:18;5.78;;;5.50;;
32934;SDS011;19292;51.532;7.650;2023-10-19T15:02:47;8.50;;;8.10;;
32934;SDS011;19292;51.532;7.650;2023-10-19T15:05:17;6.78;;;6.38;;
32934;SDS011;19292;51.532;7.650;2023-10-19T15:07:54;7.20;;;6.88;;
32934;SDS011;19292;51.532;7.650;2023-10-19T15:10:25;7.63;;;7.10;;
32934;SDS011;19292;51.532;7.650;2023-10-19T15:12:54;7.38;;;6.97;;
32934;SDS011;19292;51.532;7.650;2023-10-19T15:15:21;9.38;;;8.88;;
32934;SDS011;19292;51.532;7.650;2023-10-19T15:17:47;9.30;;;8.80;;
32934;SDS011;19292;51.532;7.650;2023-10-19T15:20:13;10.20;;;9.32;;
32934;SDS011;19292;51.532;7.650;2023-10-19T15:22:40;5.88;;;5.57;;
32934;SDS011;19292;51.532;7.650;2023-10-19T15:25:11;6.70;;;5.50;;
32934;SDS011;19292;51.532;7.650;2023-10-19T15:27:44;5.18;;;4.93;;
32934;SDS011;19292;51.532;7.650;2023-10-19T15:30:11;6.95;;;6.55;;